sensor_id;sensor_type;location;lat;lon;timestamp;P1;durP1;ratioP1;P2;durP2;ratioP2
22573;SDS011;11453;52.052;20.430;2022-08-23T00:02:04;17.80;;;11.23;;
22573;SDS011;11453;52.052;20.430;2022-08-23T00:04:34;24.20;;;12.07;;
22573;SDS011;11453;52.052;20.430;2022-08-23T00:07:02;20.92;;;11.50;;
22573;SDS011;11453;52.052;20.430;2022-08-23T00:09:30;19.90;;;11.88;;
22573;SDS011;11453;52.052;20.430;2022-08-23T00:14:37;17.88;;;10.80;;
22573;SDS011;11453;52.052;20.430;2022-08-23T00:17:05;21.80;;;12.27;;
22573;SDS011;11453;52.052;20.430;2022-08-23T00:19:33;18.92;;;11.60;;
22573;SDS011;11453;52.052;20.430;2022-08-23T00:21:58;22.05;;;11.23;;
22573;SDS011;11453;52.052;20.430;2022-08-23T00:24:24;17.95;;;10.38;;
22573;SDS011;11453;52.052;20.430;2022-08-23T00:29:16;18.13;;;10.70;;
22573;SDS011;11453;52.052;20.430;2022-08-23T00:31:43;19.83;;;10.52;;
22573;SDS011;11453;52.052;20.430;2022-08-23T00:34:09;16.02;;;10.43;;
22573;SDS011;11453;52.052;20.430;2022-08-23T00:36:35;19.60;;;11.32;;
22573;SDS011;11453;52.052;20.430;2022-08-23T00:39:02;19.00;;;11.10;;
22573;SDS011;11453;52.052;20.430;2022-08-23T00:41:28;22.20;;;11.02;;
22573;SDS011;11453;52.052;20.430;2022-08-23T00:43:55;18.05;;;10.40;;
22573;SDS011;11453;52.052;20.430;2022-08-23T00:46:41;19.27;;;11.02;;
22573;SDS011;11453;52.052;20.430;2022-08-23T00:49:28;17.17;;;10.85;;
22573;SDS011;11453;52.052;20.430;2022-08-23T00:52:02;17.40;;;10.90;;
22573;SDS011;11453;52.052;20.430;2022-08-23T00:54:59;21.40;;;11.00;;
22573;SDS011;11453;52.052;20.430;2022-08-23T00:57:26;21.02;;;11.35;;
22573;SDS011;11453;52.052;20.430;2022-08-23T00:59:52;17.45;;;11.30;;
22573;SDS011;11453;52.052;20.430;2022-08-23T01:02:18;18.83;;;11.40;;
22573;SDS011;11453;52.052;20.430;2022-08-23T01:04:48;17.88;;;11.63;;
22573;SDS011;11453;52.052;20.430;2022-08-23T01:09:52;21.08;;;11.77;;
22573;SDS011;11453;52.052;20.430;2022-08-23T01:12:29;16.75;;;11.63;;
22573;SDS011;11453;52.052;20.430;2022-08-23T01:15:02;15.55;;;10.85;;
22573;SDS011;11453;52.052;20.430;2022-08-23T01:17:40;19.13;;;11.10;;
22573;SDS011;11453;52.052;20.430;2022-08-23T01:20:12;15.10;;;10.77;;
22573;SDS011;11453;52.052;20.430;2022-08-23T01:25:16;17.52;;;10.77;;
22573;SDS011;11453;52.052;20.430;2022-08-23T01:27:45;19.88;;;11.60;;
22573;SDS011;11453;52.052;20.430;2022-08-23T01:30:13;18.42;;;11.10;;
22573;SDS011;11453;52.052;20.430;2022-08-23T01:32:44;21.25;;;11.73;;
22573;SDS011;11453;52.052;20.430;2022-08-23T01:35:14;17.17;;;11.32;;
22573;SDS011;11453;52.052;20.430;2022-08-23T01:37:41;17.67;;;11.65;;
22573;SDS011;11453;52.052;20.430;2022-08-23T01:40:08;19.73;;;11.98;;
22573;SDS011;11453;52.052;20.430;2022-08-23T01:42:34;21.30;;;11.98;;
22573;SDS011;11453;52.052;20.430;2022-08-23T01:45:00;20.80;;;12.30;;
22573;SDS011;11453;52.052;20.430;2022-08-23T01:47:26;22.35;;;12.35;;
22573;SDS011;11453;52.052;20.430;2022-08-23T01:49:52;20.30;;;12.13;;
22573;SDS011;11453;52.052;20.430;2022-08-23T01:52:17;22.58;;;11.75;;
22573;SDS011;11453;52.052;20.430;2022-08-23T01:54:43;20.45;;;12.82;;
22573;SDS011;11453;52.052;20.430;2022-08-23T01:57:09;20.63;;;12.55;;
22573;SDS011;11453;52.052;20.430;2022-08-23T01:59:35;18.02;;;12.45;;
22573;SDS011;11453;52.052;20.430;2022-08-23T02:02:01;18.75;;;12.40;;
22573;SDS011;11453;52.052;20.430;2022-08-23T02:04:27;23.88;;;12.13;;
22573;SDS011;11453;52.052;20.430;2022-08-23T02:06:54;21.95;;;12.93;;
22573;SDS011;11453;52.052;20.430;2022-08-23T02:09:20;23.85;;;12.73;;
22573;SDS011;11453;52.052;20.430;2022-08-23T02:11:46;21.45;;;12.70;;
22573;SDS011;11453;52.052;20.430;2022-08-23T02:14:14;18.77;;;12.52;;
22573;SDS011;11453;52.052;20.430;2022-08-23T02:16:43;21.13;;;12.80;;
22573;SDS011;11453;52.052;20.430;2022-08-23T02:19:13;25.77;;;13.30;;
22573;SDS011;11453;52.052;20.430;2022-08-23T02:21:39;20.52;;;12.85;;
22573;SDS011;11453;52.052;20.430;2022-08-23T02:24:10;22.02;;;12.57;;
22573;SDS011;11453;52.052;20.430;2022-08-23T02:26:42;23.27;;;12.98;;
22573;SDS011;11453;52.052;20.430;2022-08-23T02:29:10;19.90;;;12.80;;
22573;SDS011;11453;52.052;20.430;2022-08-23T02:31:38;20.73;;;12.85;;
22573;SDS011;11453;52.052;20.430;2022-08-23T02:34:05;23.58;;;13.48;;
22573;SDS011;11453;52.052;20.430;2022-08-23T02:36:31;20.10;;;12.88;;
22573;SDS011;11453;52.052;20.430;2022-08-23T02:38:57;21.77;;;13.75;;
22573;SDS011;11453;52.052;20.430;2022-08-23T02:41:23;23.20;;;12.85;;
22573;SDS011;11453;52.052;20.430;2022-08-23T02:43:52;21.17;;;13.25;;
22573;SDS011;11453;52.052;20.430;2022-08-23T02:46:19;20.50;;;13.20;;
22573;SDS011;11453;52.052;20.430;2022-08-23T02:48:45;21.85;;;13.95;;
22573;SDS011;11453;52.052;20.430;2022-08-23T02:51:11;23.52;;;13.60;;
22573;SDS011;11453;52.052;20.430;2022-08-23T02:53:37;20.88;;;12.70;;
22573;SDS011;11453;52.052;20.430;2022-08-23T02:56:03;22.15;;;13.82;;
22573;SDS011;11453;52.052;20.430;2022-08-23T02:58:29;19.27;;;13.57;;
22573;SDS011;11453;52.052;20.430;2022-08-23T03:00:54;19.60;;;13.02;;
22573;SDS011;11453;52.052;20.430;2022-08-23T03:03:20;21.75;;;12.98;;
22573;SDS011;11453;52.052;20.430;2022-08-23T03:05:47;17.90;;;12.55;;
22573;SDS011;11453;52.052;20.430;2022-08-23T03:08:14;25.55;;;12.95;;
22573;SDS011;11453;52.052;20.430;2022-08-23T03:10:41;22.15;;;12.57;;
22573;SDS011;11453;52.052;20.430;2022-08-23T03:13:11;20.40;;;12.57;;
22573;SDS011;11453;52.052;20.430;2022-08-23T03:15:37;21.08;;;12.85;;
22573;SDS011;11453;52.052;20.430;2022-08-23T03:18:03;20.13;;;12.07;;
22573;SDS011;11453;52.052;20.430;2022-08-23T03:20:29;21.58;;;12.90;;
22573;SDS011;11453;52.052;20.430;2022-08-23T03:22:55;23.30;;;13.48;;
22573;SDS011;11453;52.052;20.430;2022-08-23T03:25:21;20.70;;;12.82;;
22573;SDS011;11453;52.052;20.430;2022-08-23T03:27:47;20.38;;;12.45;;
22573;SDS011;11453;52.052;20.430;2022-08-23T03:30:13;22.83;;;12.90;;
22573;SDS011;11453;52.052;20.430;2022-08-23T03:32:39;23.63;;;12.93;;
22573;SDS011;11453;52.052;20.430;2022-08-23T03:35:05;21.67;;;13.40;;
22573;SDS011;11453;52.052;20.430;2022-08-23T03:37:31;18.33;;;12.38;;
22573;SDS011;11453;52.052;20.430;2022-08-23T03:39:57;21.52;;;12.85;;
22573;SDS011;11453;52.052;20.430;2022-08-23T03:42:22;20.10;;;12.43;;
22573;SDS011;11453;52.052;20.430;2022-08-23T03:44:49;22.58;;;12.93;;
22573;SDS011;11453;52.052;20.430;2022-08-23T03:47:14;22.13;;;13.52;;
22573;SDS011;11453;52.052;20.430;2022-08-23T03:49:40;19.90;;;13.10;;
22573;SDS011;11453;52.052;20.430;2022-08-23T03:52:06;19.73;;;12.90;;
22573;SDS011;11453;52.052;20.430;2022-08-23T03:54:32;20.52;;;12.88;;
22573;SDS011;11453;52.052;20.430;2022-08-23T03:56:59;21.17;;;13.63;;
22573;SDS011;11453;52.052;20.430;2022-08-23T03:59:27;21.15;;;13.85;;
22573;SDS011;11453;52.052;20.430;2022-08-23T04:01:55;19.70;;;12.52;;
22573;SDS011;11453;52.052;20.430;2022-08-23T04:04:21;21.00;;;12.73;;
22573;SDS011;11453;52.052;20.430;2022-08-23T04:06:47;21.70;;;12.88;;
22573;SDS011;11453;52.052;20.430;2022-08-23T04:09:13;21.75;;;12.38;;
22573;SDS011;11453;52.052;20.430;2022-08-23T04:11:40;23.10;;;12.98;;
22573;SDS011;11453;52.052;20.430;2022-08-23T04:14:06;18.92;;;12.85;;
22573;SDS011;11453;52.052;20.430;2022-08-23T04:16:32;22.27;;;12.70;;
22573;SDS011;11453;52.052;20.430;2022-08-23T04:19:02;18.25;;;11.90;;
22573;SDS011;11453;52.052;20.430;2022-08-23T04:21:29;20.52;;;13.10;;
22573;SDS011;11453;52.052;20.430;2022-08-23T04:23:56;20.58;;;12.63;;
22573;SDS011;11453;52.052;20.430;2022-08-23T04:26:21;20.55;;;12.55;;
22573;SDS011;11453;52.052;20.430;2022-08-23T04:28:47;22.13;;;13.68;;
22573;SDS011;11453;52.052;20.430;2022-08-23T04:31:13;21.73;;;13.73;;
22573;SDS011;11453;52.052;20.430;2022-08-23T04:33:40;23.10;;;13.93;;
22573;SDS011;11453;52.052;20.430;2022-08-23T04:36:05;21.08;;;13.20;;
22573;SDS011;11453;52.052;20.430;2022-08-23T04:38:31;20.45;;;13.75;;
22573;SDS011;11453;52.052;20.430;2022-08-23T04:40:57;20.88;;;13.43;;
22573;SDS011;11453;52.052;20.430;2022-08-23T04:43:42;20.80;;;13.63;;
22573;SDS011;11453;52.052;20.430;2022-08-23T04:46:08;22.90;;;13.63;;
22573;SDS011;11453;52.052;20.430;2022-08-23T04:48:35;19.23;;;13.88;;
22573;SDS011;11453;52.052;20.430;2022-08-23T04:51:01;21.15;;;13.50;;
22573;SDS011;11453;52.052;20.430;2022-08-23T04:53:26;20.25;;;13.45;;
22573;SDS011;11453;52.052;20.430;2022-08-23T04:55:58;23.75;;;13.68;;
22573;SDS011;11453;52.052;20.430;2022-08-23T04:58:26;21.50;;;13.25;;
22573;SDS011;11453;52.052;20.430;2022-08-23T05:00:52;18.38;;;13.38;;
22573;SDS011;11453;52.052;20.430;2022-08-23T05:03:18;21.52;;;14.40;;
22573;SDS011;11453;52.052;20.430;2022-08-23T05:05:43;24.88;;;13.65;;
22573;SDS011;11453;52.052;20.430;2022-08-23T05:08:09;24.40;;;14.05;;
22573;SDS011;11453;52.052;20.430;2022-08-23T05:10:35;21.13;;;14.10;;
22573;SDS011;11453;52.052;20.430;2022-08-23T05:13:01;23.00;;;13.77;;
22573;SDS011;11453;52.052;20.430;2022-08-23T05:15:26;21.50;;;14.43;;
22573;SDS011;11453;52.052;20.430;2022-08-23T05:17:52;24.55;;;14.88;;
22573;SDS011;11453;52.052;20.430;2022-08-23T05:20:18;24.45;;;14.93;;
22573;SDS011;11453;52.052;20.430;2022-08-23T05:22:43;22.20;;;15.43;;
22573;SDS011;11453;52.052;20.430;2022-08-23T05:25:09;22.33;;;15.73;;
22573;SDS011;11453;52.052;20.430;2022-08-23T05:27:35;22.30;;;16.20;;
22573;SDS011;11453;52.052;20.430;2022-08-23T05:30:02;24.98;;;16.60;;
22573;SDS011;11453;52.052;20.430;2022-08-23T05:32:30;27.73;;;16.52;;
22573;SDS011;11453;52.052;20.430;2022-08-23T05:34:56;22.50;;;14.52;;
22573;SDS011;11453;52.052;20.430;2022-08-23T05:37:21;23.50;;;14.85;;
22573;SDS011;11453;52.052;20.430;2022-08-23T05:39:47;24.45;;;16.92;;
22573;SDS011;11453;52.052;20.430;2022-08-23T05:42:13;22.85;;;16.08;;
22573;SDS011;11453;52.052;20.430;2022-08-23T05:44:40;28.52;;;15.82;;
22573;SDS011;11453;52.052;20.430;2022-08-23T05:47:07;25.60;;;15.15;;
22573;SDS011;11453;52.052;20.430;2022-08-23T05:49:35;22.48;;;15.10;;
22573;SDS011;11453;52.052;20.430;2022-08-23T05:52:02;22.05;;;14.32;;
22573;SDS011;11453;52.052;20.430;2022-08-23T05:54:31;23.15;;;15.00;;
22573;SDS011;11453;52.052;20.430;2022-08-23T05:56:57;24.55;;;14.88;;
22573;SDS011;11453;52.052;20.430;2022-08-23T05:59:23;27.40;;;17.80;;
22573;SDS011;11453;52.052;20.430;2022-08-23T06:01:48;23.52;;;15.48;;
22573;SDS011;11453;52.052;20.430;2022-08-23T06:04:14;28.17;;;17.67;;
22573;SDS011;11453;52.052;20.430;2022-08-23T06:06:41;31.67;;;20.88;;
22573;SDS011;11453;52.052;20.430;2022-08-23T06:09:09;23.75;;;18.15;;
22573;SDS011;11453;52.052;20.430;2022-08-23T06:11:37;25.00;;;15.93;;
22573;SDS011;11453;52.052;20.430;2022-08-23T06:14:03;26.77;;;15.40;;
22573;SDS011;11453;52.052;20.430;2022-08-23T06:16:31;25.70;;;14.93;;
22573;SDS011;11453;52.052;20.430;2022-08-23T06:18:59;24.95;;;15.20;;
22573;SDS011;11453;52.052;20.430;2022-08-23T06:21:28;24.20;;;15.48;;
22573;SDS011;11453;52.052;20.430;2022-08-23T06:23:55;28.00;;;18.48;;
22573;SDS011;11453;52.052;20.430;2022-08-23T06:26:28;25.63;;;14.52;;
22573;SDS011;11453;52.052;20.430;2022-08-23T06:28:57;31.20;;;17.20;;
22573;SDS011;11453;52.052;20.430;2022-08-23T06:31:26;27.42;;;17.20;;
22573;SDS011;11453;52.052;20.430;2022-08-23T06:34:21;25.02;;;14.60;;
22573;SDS011;11453;52.052;20.430;2022-08-23T06:39:21;24.58;;;13.48;;
22573;SDS011;11453;52.052;20.430;2022-08-23T06:41:48;21.90;;;13.38;;
22573;SDS011;11453;52.052;20.430;2022-08-23T06:44:15;24.17;;;13.70;;
22573;SDS011;11453;52.052;20.430;2022-08-23T06:46:42;22.90;;;14.30;;
22573;SDS011;11453;52.052;20.430;2022-08-23T06:49:08;20.40;;;13.27;;
22573;SDS011;11453;52.052;20.430;2022-08-23T06:51:35;21.55;;;13.35;;
22573;SDS011;11453;52.052;20.430;2022-08-23T06:54:07;21.05;;;13.90;;
22573;SDS011;11453;52.052;20.430;2022-08-23T06:56:35;19.85;;;13.18;;
22573;SDS011;11453;52.052;20.430;2022-08-23T06:59:01;23.75;;;13.60;;
22573;SDS011;11453;52.052;20.430;2022-08-23T07:01:44;23.67;;;15.68;;
22573;SDS011;11453;52.052;20.430;2022-08-23T07:04:17;23.55;;;13.88;;
22573;SDS011;11453;52.052;20.430;2022-08-23T07:06:45;27.25;;;14.50;;
22573;SDS011;11453;52.052;20.430;2022-08-23T07:09:11;21.95;;;13.75;;
22573;SDS011;11453;52.052;20.430;2022-08-23T07:11:37;21.45;;;13.65;;
22573;SDS011;11453;52.052;20.430;2022-08-23T07:14:05;22.05;;;14.13;;
22573;SDS011;11453;52.052;20.430;2022-08-23T07:16:33;27.27;;;15.05;;
22573;SDS011;11453;52.052;20.430;2022-08-23T07:19:01;21.00;;;13.95;;
22573;SDS011;11453;52.052;20.430;2022-08-23T07:21:27;21.42;;;13.80;;
22573;SDS011;11453;52.052;20.430;2022-08-23T07:23:53;22.77;;;12.70;;
22573;SDS011;11453;52.052;20.430;2022-08-23T07:26:19;17.50;;;11.82;;
22573;SDS011;11453;52.052;20.430;2022-08-23T07:28:46;20.05;;;11.95;;
22573;SDS011;11453;52.052;20.430;2022-08-23T07:31:17;18.17;;;12.90;;
22573;SDS011;11453;52.052;20.430;2022-08-23T07:33:47;18.17;;;11.82;;
22573;SDS011;11453;52.052;20.430;2022-08-23T07:36:14;22.83;;;12.27;;
22573;SDS011;11453;52.052;20.430;2022-08-23T07:38:42;21.48;;;12.02;;
22573;SDS011;11453;52.052;20.430;2022-08-23T07:41:09;22.85;;;13.30;;
22573;SDS011;11453;52.052;20.430;2022-08-23T07:43:35;20.92;;;13.48;;
22573;SDS011;11453;52.052;20.430;2022-08-23T07:46:03;22.10;;;15.40;;
22573;SDS011;11453;52.052;20.430;2022-08-23T07:48:29;23.25;;;16.23;;
22573;SDS011;11453;52.052;20.430;2022-08-23T07:50:56;20.20;;;14.23;;
22573;SDS011;11453;52.052;20.430;2022-08-23T07:53:24;22.70;;;14.68;;
22573;SDS011;11453;52.052;20.430;2022-08-23T07:55:50;22.00;;;13.57;;
22573;SDS011;11453;52.052;20.430;2022-08-23T07:58:17;19.75;;;13.38;;
22573;SDS011;11453;52.052;20.430;2022-08-23T08:00:43;20.73;;;13.45;;
22573;SDS011;11453;52.052;20.430;2022-08-23T08:03:10;17.20;;;12.38;;
22573;SDS011;11453;52.052;20.430;2022-08-23T08:05:37;17.75;;;10.88;;
22573;SDS011;11453;52.052;20.430;2022-08-23T08:08:04;21.38;;;11.20;;
22573;SDS011;11453;52.052;20.430;2022-08-23T08:10:30;18.67;;;11.57;;
22573;SDS011;11453;52.052;20.430;2022-08-23T08:12:57;21.92;;;11.77;;
22573;SDS011;11453;52.052;20.430;2022-08-23T08:15:23;18.48;;;12.10;;
22573;SDS011;11453;52.052;20.430;2022-08-23T08:17:49;18.45;;;10.45;;
22573;SDS011;11453;52.052;20.430;2022-08-23T08:20:16;17.33;;;10.70;;
22573;SDS011;11453;52.052;20.430;2022-08-23T08:22:42;16.08;;;10.40;;
22573;SDS011;11453;52.052;20.430;2022-08-23T08:25:08;18.05;;;10.65;;
22573;SDS011;11453;52.052;20.430;2022-08-23T08:27:35;19.05;;;10.43;;
22573;SDS011;11453;52.052;20.430;2022-08-23T08:30:01;19.48;;;13.20;;
22573;SDS011;11453;52.052;20.430;2022-08-23T08:32:28;18.48;;;11.80;;
22573;SDS011;11453;52.052;20.430;2022-08-23T08:34:53;16.88;;;10.18;;
22573;SDS011;11453;52.052;20.430;2022-08-23T08:37:19;15.02;;;9.75;;
22573;SDS011;11453;52.052;20.430;2022-08-23T08:39:45;16.75;;;9.88;;
22573;SDS011;11453;52.052;20.430;2022-08-23T08:52:39;18.95;;;11.02;;
22573;SDS011;11453;52.052;20.430;2022-08-23T08:57:38;18.33;;;10.80;;
22573;SDS011;11453;52.052;20.430;2022-08-23T09:00:07;17.88;;;10.43;;
22573;SDS011;11453;52.052;20.430;2022-08-23T09:02:42;19.30;;;10.65;;
22573;SDS011;11453;52.052;20.430;2022-08-23T09:05:13;18.05;;;11.30;;
22573;SDS011;11453;52.052;20.430;2022-08-23T09:10:23;16.85;;;10.82;;
22573;SDS011;11453;52.052;20.430;2022-08-23T09:18:27;17.42;;;10.32;;
22573;SDS011;11453;52.052;20.430;2022-08-23T09:20:58;18.70;;;11.07;;
22573;SDS011;11453;52.052;20.430;2022-08-23T09:23:26;20.25;;;10.30;;
22573;SDS011;11453;52.052;20.430;2022-08-23T09:25:59;17.92;;;10.63;;
22573;SDS011;11453;52.052;20.430;2022-08-23T09:28:29;16.02;;;9.88;;
22573;SDS011;11453;52.052;20.430;2022-08-23T09:30:58;17.88;;;9.52;;
22573;SDS011;11453;52.052;20.430;2022-08-23T09:36:25;20.35;;;9.75;;
22573;SDS011;11453;52.052;20.430;2022-08-23T09:38:56;20.92;;;10.63;;
22573;SDS011;11453;52.052;20.430;2022-08-23T09:41:24;18.02;;;9.73;;
22573;SDS011;11453;52.052;20.430;2022-08-23T09:43:52;20.55;;;9.00;;
22573;SDS011;11453;52.052;20.430;2022-08-23T09:46:33;16.95;;;9.45;;
22573;SDS011;11453;52.052;20.430;2022-08-23T09:51:54;17.98;;;10.00;;
22573;SDS011;11453;52.052;20.430;2022-08-23T09:54:29;17.58;;;9.55;;
22573;SDS011;11453;52.052;20.430;2022-08-23T09:56:59;18.73;;;9.48;;
22573;SDS011;11453;52.052;20.430;2022-08-23T09:59:37;18.33;;;9.88;;
22573;SDS011;11453;52.052;20.430;2022-08-23T10:07:34;15.30;;;9.13;;
22573;SDS011;11453;52.052;20.430;2022-08-23T10:10:13;21.40;;;9.40;;
22573;SDS011;11453;52.052;20.430;2022-08-23T10:12:41;18.13;;;9.15;;
22573;SDS011;11453;52.052;20.430;2022-08-23T10:15:07;19.33;;;9.13;;
22573;SDS011;11453;52.052;20.430;2022-08-23T10:22:54;17.75;;;9.13;;
22573;SDS011;11453;52.052;20.430;2022-08-23T10:25:29;17.85;;;8.98;;
22573;SDS011;11453;52.052;20.430;2022-08-23T10:28:20;30.52;;;10.35;;
22573;SDS011;11453;52.052;20.430;2022-08-23T10:31:21;29.65;;;11.20;;
22573;SDS011;11453;52.052;20.430;2022-08-23T10:39:36;20.45;;;9.77;;
22573;SDS011;11453;52.052;20.430;2022-08-23T10:44:45;22.05;;;9.02;;
22573;SDS011;11453;52.052;20.430;2022-08-23T10:47:33;17.67;;;8.48;;
22573;SDS011;11453;52.052;20.430;2022-08-23T10:50:08;21.65;;;9.15;;
22573;SDS011;11453;52.052;20.430;2022-08-23T10:52:55;18.67;;;8.68;;
22573;SDS011;11453;52.052;20.430;2022-08-23T10:55:29;22.70;;;9.65;;
22573;SDS011;11453;52.052;20.430;2022-08-23T10:58:20;20.73;;;8.80;;
22573;SDS011;11453;52.052;20.430;2022-08-23T11:00:48;22.55;;;9.75;;
22573;SDS011;11453;52.052;20.430;2022-08-23T11:14:56;24.85;;;9.02;;
22573;SDS011;11453;52.052;20.430;2022-08-23T11:17:00;23.45;;;9.18;;
22573;SDS011;11453;52.052;20.430;2022-08-23T11:22:14;23.45;;;8.68;;
22573;SDS011;11453;52.052;20.430;2022-08-23T11:25:41;21.20;;;8.90;;
22573;SDS011;11453;52.052;20.430;2022-08-23T11:27:41;18.58;;;7.93;;
22573;SDS011;11453;52.052;20.430;2022-08-23T11:32:55;19.48;;;8.55;;
22573;SDS011;11453;52.052;20.430;2022-08-23T11:35:47;23.88;;;8.10;;
22573;SDS011;11453;52.052;20.430;2022-08-23T11:43:47;20.45;;;8.05;;
22573;SDS011;11453;52.052;20.430;2022-08-23T11:51:59;19.20;;;8.25;;
22573;SDS011;11453;52.052;20.430;2022-08-23T12:03:25;17.33;;;8.38;;
22573;SDS011;11453;52.052;20.430;2022-08-23T12:11:17;22.90;;;7.93;;
22573;SDS011;11453;52.052;20.430;2022-08-23T12:13:45;20.08;;;8.10;;
22573;SDS011;11453;52.052;20.430;2022-08-23T12:21:26;21.58;;;8.15;;
22573;SDS011;11453;52.052;20.430;2022-08-23T12:23:58;22.08;;;8.10;;
22573;SDS011;11453;52.052;20.430;2022-08-23T12:32:04;20.02;;;8.15;;
22573;SDS011;11453;52.052;20.430;2022-08-23T12:40:25;19.45;;;7.07;;
22573;SDS011;11453;52.052;20.430;2022-08-23T12:43:02;21.75;;;7.40;;
22573;SDS011;11453;52.052;20.430;2022-08-23T12:45:40;22.17;;;7.13;;
22573;SDS011;11453;52.052;20.430;2022-08-23T12:48:14;17.40;;;7.00;;
22573;SDS011;11453;52.052;20.430;2022-08-23T12:50:50;20.17;;;7.10;;
22573;SDS011;11453;52.052;20.430;2022-08-23T12:53:25;22.02;;;7.35;;
22573;SDS011;11453;52.052;20.430;2022-08-23T12:55:58;26.92;;;8.10;;
22573;SDS011;11453;52.052;20.430;2022-08-23T12:58:27;27.90;;;7.43;;
22573;SDS011;11453;52.052;20.430;2022-08-23T13:00:56;25.90;;;7.40;;
22573;SDS011;11453;52.052;20.430;2022-08-23T13:03:28;34.00;;;7.70;;
22573;SDS011;11453;52.052;20.430;2022-08-23T13:06:03;28.75;;;8.10;;
22573;SDS011;11453;52.052;20.430;2022-08-23T13:11:13;26.08;;;8.60;;
22573;SDS011;11453;52.052;20.430;2022-08-23T13:13:46;24.85;;;8.75;;
22573;SDS011;11453;52.052;20.430;2022-08-23T13:16:26;23.38;;;8.90;;
22573;SDS011;11453;52.052;20.430;2022-08-23T13:22:07;22.17;;;8.48;;
22573;SDS011;11453;52.052;20.430;2022-08-23T13:24:42;17.27;;;8.20;;
22573;SDS011;11453;52.052;20.430;2022-08-23T13:27:23;15.07;;;8.13;;
22573;SDS011;11453;52.052;20.430;2022-08-23T13:34:54;16.92;;;8.25;;
22573;SDS011;11453;52.052;20.430;2022-08-23T13:43:20;17.60;;;7.03;;
22573;SDS011;11453;52.052;20.430;2022-08-23T13:45:48;12.57;;;6.30;;
22573;SDS011;11453;52.052;20.430;2022-08-23T13:48:26;15.10;;;5.60;;
22573;SDS011;11453;52.052;20.430;2022-08-23T13:51:15;16.52;;;4.90;;
22573;SDS011;11453;52.052;20.430;2022-08-23T13:53:57;16.05;;;4.90;;
22573;SDS011;11453;52.052;20.430;2022-08-23T13:56:26;15.23;;;4.85;;
22573;SDS011;11453;52.052;20.430;2022-08-23T13:58:57;10.68;;;4.40;;
22573;SDS011;11453;52.052;20.430;2022-08-23T14:01:27;11.45;;;4.70;;
22573;SDS011;11453;52.052;20.430;2022-08-23T14:03:53;11.48;;;3.95;;
22573;SDS011;11453;52.052;20.430;2022-08-23T14:06:20;11.52;;;4.70;;
22573;SDS011;11453;52.052;20.430;2022-08-23T14:08:45;10.32;;;4.65;;
22573;SDS011;11453;52.052;20.430;2022-08-23T14:11:12;11.63;;;4.15;;
22573;SDS011;11453;52.052;20.430;2022-08-23T14:13:40;11.75;;;4.30;;
22573;SDS011;11453;52.052;20.430;2022-08-23T14:16:09;10.98;;;4.22;;
22573;SDS011;11453;52.052;20.430;2022-08-23T14:18:54;12.70;;;4.30;;
22573;SDS011;11453;52.052;20.430;2022-08-23T14:21:19;20.23;;;5.18;;
22573;SDS011;11453;52.052;20.430;2022-08-23T14:23:45;17.70;;;4.97;;
22573;SDS011;11453;52.052;20.430;2022-08-23T14:26:15;19.63;;;5.22;;
22573;SDS011;11453;52.052;20.430;2022-08-23T14:28:42;18.98;;;4.82;;
22573;SDS011;11453;52.052;20.430;2022-08-23T14:31:09;14.23;;;4.53;;
22573;SDS011;11453;52.052;20.430;2022-08-23T14:33:35;16.60;;;8.40;;
22573;SDS011;11453;52.052;20.430;2022-08-23T14:36:01;15.50;;;4.95;;
22573;SDS011;11453;52.052;20.430;2022-08-23T14:38:28;14.18;;;4.20;;
22573;SDS011;11453;52.052;20.430;2022-08-23T14:40:58;13.30;;;4.28;;
22573;SDS011;11453;52.052;20.430;2022-08-23T14:43:27;13.85;;;4.20;;
22573;SDS011;11453;52.052;20.430;2022-08-23T14:45:54;12.80;;;4.63;;
22573;SDS011;11453;52.052;20.430;2022-08-23T14:48:20;12.55;;;4.93;;
22573;SDS011;11453;52.052;20.430;2022-08-23T14:50:47;12.65;;;4.40;;
22573;SDS011;11453;52.052;20.430;2022-08-23T14:53:14;12.75;;;4.65;;
22573;SDS011;11453;52.052;20.430;2022-08-23T14:55:41;10.90;;;3.97;;
22573;SDS011;11453;52.052;20.430;2022-08-23T14:58:07;13.70;;;4.63;;
22573;SDS011;11453;52.052;20.430;2022-08-23T15:00:33;12.73;;;4.60;;
22573;SDS011;11453;52.052;20.430;2022-08-23T15:03:01;10.27;;;3.97;;
22573;SDS011;11453;52.052;20.430;2022-08-23T15:05:28;10.65;;;4.57;;
22573;SDS011;11453;52.052;20.430;2022-08-23T15:07:54;12.07;;;4.65;;
22573;SDS011;11453;52.052;20.430;2022-08-23T15:10:19;10.65;;;4.70;;
22573;SDS011;11453;52.052;20.430;2022-08-23T15:12:45;12.10;;;4.82;;
22573;SDS011;11453;52.052;20.430;2022-08-23T15:15:14;7.88;;;3.55;;
22573;SDS011;11453;52.052;20.430;2022-08-23T15:17:44;11.90;;;4.50;;
22573;SDS011;11453;52.052;20.430;2022-08-23T15:20:16;12.52;;;4.75;;
22573;SDS011;11453;52.052;20.430;2022-08-23T15:22:43;12.50;;;4.47;;
22573;SDS011;11453;52.052;20.430;2022-08-23T15:25:09;15.18;;;6.60;;
22573;SDS011;11453;52.052;20.430;2022-08-23T15:27:34;12.82;;;4.82;;
22573;SDS011;11453;52.052;20.430;2022-08-23T15:30:00;10.63;;;4.50;;
22573;SDS011;11453;52.052;20.430;2022-08-23T15:32:26;11.98;;;4.88;;
22573;SDS011;11453;52.052;20.430;2022-08-23T15:34:51;15.07;;;4.97;;
22573;SDS011;11453;52.052;20.430;2022-08-23T15:37:18;14.23;;;5.30;;
22573;SDS011;11453;52.052;20.430;2022-08-23T15:39:45;11.57;;;5.05;;
22573;SDS011;11453;52.052;20.430;2022-08-23T15:42:10;16.10;;;10.30;;
22573;SDS011;11453;52.052;20.430;2022-08-23T15:44:36;10.68;;;5.57;;
22573;SDS011;11453;52.052;20.430;2022-08-23T15:47:02;14.38;;;5.50;;
22573;SDS011;11453;52.052;20.430;2022-08-23T15:49:33;13.20;;;5.25;;
22573;SDS011;11453;52.052;20.430;2022-08-23T15:51:58;15.35;;;5.78;;
22573;SDS011;11453;52.052;20.430;2022-08-23T15:54:24;10.65;;;5.63;;
22573;SDS011;11453;52.052;20.430;2022-08-23T15:56:49;15.93;;;5.35;;
22573;SDS011;11453;52.052;20.430;2022-08-23T15:59:17;12.15;;;5.55;;
22573;SDS011;11453;52.052;20.430;2022-08-23T16:01:45;13.00;;;6.20;;
22573;SDS011;11453;52.052;20.430;2022-08-23T16:04:11;14.45;;;6.90;;
22573;SDS011;11453;52.052;20.430;2022-08-23T16:06:38;12.85;;;5.68;;
22573;SDS011;11453;52.052;20.430;2022-08-23T16:09:05;15.98;;;6.63;;
22573;SDS011;11453;52.052;20.430;2022-08-23T16:11:32;14.98;;;6.30;;
22573;SDS011;11453;52.052;20.430;2022-08-23T16:13:57;14.52;;;6.25;;
22573;SDS011;11453;52.052;20.430;2022-08-23T16:16:24;13.23;;;6.65;;
22573;SDS011;11453;52.052;20.430;2022-08-23T16:18:53;15.90;;;6.63;;
22573;SDS011;11453;52.052;20.430;2022-08-23T16:21:19;16.85;;;6.93;;
22573;SDS011;11453;52.052;20.430;2022-08-23T16:23:46;13.77;;;7.15;;
22573;SDS011;11453;52.052;20.430;2022-08-23T16:26:15;15.73;;;6.75;;
22573;SDS011;11453;52.052;20.430;2022-08-23T16:28:43;13.80;;;6.03;;
22573;SDS011;11453;52.052;20.430;2022-08-23T16:31:10;17.45;;;6.05;;
22573;SDS011;11453;52.052;20.430;2022-08-23T16:33:37;13.95;;;6.38;;
22573;SDS011;11453;52.052;20.430;2022-08-23T16:36:03;14.57;;;5.78;;
22573;SDS011;11453;52.052;20.430;2022-08-23T16:38:29;16.73;;;6.38;;